Daikoku — JD3247 — position and weather

sailwx.info

Track history (hours):
 
Tides and Currents Weather Stations Pressure Air Temp Water Temp Dewpoint Dewpoint Depression Visibility Wind Speed Wind Dir Waves Ship Positions

Daikoku

Last reported at 2017-Nov-17 06:02 UTC. Time now 2017-Nov-22 15:05 UTC.
Position N 34°37' E 135°01'.

Length 95 m; draft 3 m.

Type: Cargo ship. MMSI: 431003009.

Date/timePositionNaut miles runAvg speedWind from/ knotsBaromVisibWave heightAir tempDewpointWater temp
2017-Nov-17 06:02N 34°37' E 135°01'010.8
2017-Nov-17 06:00N 34°37' E 135°02'510.6
2017-Nov-17 05:30N 34°36' E 135°08'612.5
2017-Nov-17 05:01N 34°37' E 135°15'4 8.4
2017-Nov-17 04:30N 34°41' E 135°17'0 0.8
2017-Nov-17 04:00N 34°41' E 135°17'3 6.9
2017-Nov-17 03:31N 34°41' E 135°12'0 0.0
2017-Nov-17 03:00N 34°41' E 135°12'0 0.0
2017-Nov-17 02:31N 34°41' E 135°12'0 0.0
2017-Nov-17 02:00N 34°41' E 135°12'0 0.0
2017-Nov-17 01:24N 34°41' E 135°12'0 0.0
2017-Nov-17 00:48N 34°41' E 135°12'0 0.0
2017-Nov-17 00:30N 34°41' E 135°12'0 0.0
2017-Nov-16 23:54N 34°41' E 135°12'0 0.0
2017-Nov-16 23:24N 34°41' E 135°12'0 0.0
2017-Nov-16 22:54N 34°41' E 135°12'0 0.0
2017-Nov-16 21:54N 34°41' E 135°12'0 0.0
2017-Nov-16 21:30N 34°41' E 135°12'0 0.0
2017-Nov-16 20:54N 34°41' E 135°12'0 0.0
2017-Nov-16 20:30N 34°41' E 135°12'0 0.0
2017-Nov-16 19:55N 34°41' E 135°12'0 0.0
2017-Nov-16 19:30N 34°41' E 135°12'0 0.0
2017-Nov-16 19:00N 34°41' E 135°12'0 0.0
2017-Nov-16 18:24N 34°41' E 135°12'0 0.0
2017-Nov-16 18:00N 34°41' E 135°12'0 0.0
2017-Nov-16 17:30N 34°41' E 135°12'0 0.0
2017-Nov-16 17:00N 34°41' E 135°12'0 0.0
2017-Nov-16 16:30N 34°41' E 135°12'0 0.0
2017-Nov-16 15:54N 34°41' E 135°12'0 0.0
2017-Nov-16 15:31N 34°41' E 135°12'0 0.0
2017-Nov-16 15:00N 34°41' E 135°12'0 0.0
2017-Nov-16 14:30N 34°41' E 135°12'0 0.0
2017-Nov-16 14:00N 34°41' E 135°12'0 0.0
2017-Nov-16 13:30N 34°41' E 135°12'0 0.0
2017-Nov-16 12:54N 34°41' E 135°12'0 0.0
2017-Nov-16 12:30N 34°41' E 135°12'0 0.0
2017-Nov-16 11:42N 34°41' E 135°12'0 0.0
2017-Nov-16 11:30N 34°41' E 135°12'0 0.0
2017-Nov-16 11:00N 34°41' E 135°12'0 0.0
2017-Nov-16 10:30N 34°41' E 135°12'0 0.0
2017-Nov-16 09:54N 34°41' E 135°12'0 0.0
2017-Nov-16 09:30N 34°41' E 135°12'0 0.0
2017-Nov-16 09:00N 34°41' E 135°12'0 0.0
2017-Nov-16 08:24N 34°41' E 135°12'0 0.0
2017-Nov-16 08:00N 34°41' E 135°12'3 5.5
2017-Nov-16 07:31N 34°40' E 135°15'5 9.8
2017-Nov-16 07:00N 34°35' E 135°13'713.5
2017-Nov-16 06:30N 34°35' E 135°05'612.8
2017-Nov-16 06:00N 34°36' E 134°57'2 0.1
2017-Nov-15 09:05N 34°37' E 134°59'215.3
2017-Nov-15 08:59N 34°37' E 135°01'613.3
2017-Nov-15 08:30N 34°37' E 135°09'612.5
2017-Nov-15 08:00N 34°38' E 135°16'2 2.6
2017-Nov-15 07:19N 34°40' E 135°14'0 0.0
2017-Nov-15 06:49N 34°40' E 135°14'0 0.0
2017-Nov-15 06:25N 34°40' E 135°14'0 0.0
2017-Nov-15 05:55N 34°40' E 135°14'0 0.0
2017-Nov-15 05:25N 34°40' E 135°14'0 0.0
2017-Nov-15 04:55N 34°40' E 135°14'1 1.5
2017-Nov-15 04:30N 34°39' E 135°15'4 7.5
2017-Nov-15 04:00N 34°38' E 135°19'0 0.1
2017-Nov-15 02:57N 34°38' E 135°19'0 0.0
2017-Nov-15 02:27N 34°38' E 135°19'0 0.0
2017-Nov-15 01:57N 34°38' E 135°19'0 0.0
2017-Nov-15 01:27N 34°38' E 135°19'1 2.8
2017-Nov-15 00:58N 34°37' E 135°18'3 7.2
2017-Nov-15 00:30N 34°41' E 135°18'1 2.0
2017-Nov-15 00:00N 34°41' E 135°17'3 6.0
2017-Nov-14 23:30N 34°39' E 135°19'0 0.1
2017-Nov-14 22:57N 34°39' E 135°19'0 0.0
2017-Nov-14 22:27N 34°39' E 135°19'0 0.0
2017-Nov-14 21:57N 34°39' E 135°19'0 0.0
2017-Nov-14 20:57N 34°39' E 135°19'0 0.0
2017-Nov-14 20:27N 34°39' E 135°19'0 0.0
2017-Nov-14 19:57N 34°39' E 135°19'0 0.1
2017-Nov-14 19:21N 34°39' E 135°19'0 0.1
2017-Nov-14 18:57N 34°39' E 135°19'0 0.1
2017-Nov-14 18:27N 34°39' E 135°19'0 0.0
2017-Nov-14 17:39N 34°39' E 135°19'0 0.0
2017-Nov-14 17:21N 34°39' E 135°19'0 0.0
2017-Nov-14 16:57N 34°39' E 135°19'0 0.0
2017-Nov-14 16:27N 34°39' E 135°19'0 0.0
2017-Nov-14 15:57N 34°39' E 135°19'0 0.0
2017-Nov-14 15:27N 34°39' E 135°19'0 0.0
2017-Nov-14 14:57N 34°39' E 135°19'0 0.0
2017-Nov-14 14:27N 34°39' E 135°19'4 8.9
2017-Nov-14 14:00N 34°36' E 135°16'713.4
2017-Nov-14 13:30N 34°35' E 135°08'714.2
2017-Nov-14 12:59N 34°37' E 134°59'17 0.5
2017-Nov-13 01:51N 34°38' E 135°19'0 0.0
2017-Nov-13 01:27N 34°38' E 135°19'0 0.0
2017-Nov-13 00:57N 34°38' E 135°19'0 0.0
2017-Nov-13 00:15N 34°38' E 135°19'0 0.0
2017-Nov-12 23:51N 34°38' E 135°19'0 0.0
2017-Nov-12 22:39N 34°38' E 135°19'0 0.2
2017-Nov-12 22:27N 34°38' E 135°19'0 0.0
2017-Nov-12 21:51N 34°38' E 135°19'0 0.0
2017-Nov-12 21:27N 34°38' E 135°19'0 0.0
2017-Nov-12 20:45N 34°38' E 135°19'0 0.0
2017-Nov-12 20:27N 34°38' E 135°19'0 0.0
2017-Nov-12 19:57N 34°38' E 135°19'0 0.0
2017-Nov-12 18:33N 34°38' E 135°19'0 0.1
2017-Nov-12 18:27N 34°38' E 135°19'0 0.1
2017-Nov-12 17:57N 34°38' E 135°19'0 0.0
2017-Nov-12 17:27N 34°38' E 135°19'0 0.1
2017-Nov-12 16:57N 34°38' E 135°19'0 0.1
2017-Nov-12 16:27N 34°38' E 135°19'0 0.1
2017-Nov-12 15:45N 34°38' E 135°19'0 0.0
2017-Nov-12 15:27N 34°38' E 135°19'0 0.1
2017-Nov-12 14:51N 34°38' E 135°19'0 0.1
2017-Nov-12 14:21N 34°38' E 135°19'0 0.0
2017-Nov-12 13:45N 34°38' E 135°19'0 0.0
2017-Nov-12 13:15N 34°38' E 135°19'0 0.0
2017-Nov-12 12:51N 34°38' E 135°19'0 0.0
2017-Nov-12 12:27N 34°38' E 135°19'0 0.0
2017-Nov-12 11:57N 34°38' E 135°19'0 0.0
2017-Nov-12 11:15N 34°38' E 135°19'2 8.0
2017-Nov-12 11:00N 34°37' E 135°17'611.8
2017-Nov-12 10:30N 34°35' E 135°11'612.8
2017-Nov-12 10:00N 34°36' E 135°03'  
2017-Nov-09 08:49N 34°37' E 135°01'3 9.8
2017-Nov-09 08:30N 34°36' E 135°05'612.3
2017-Nov-09 08:00N 34°36' E 135°12'611.8
2017-Nov-09 07:30N 34°39' E 135°18'2 4.0
2017-Nov-09 07:00N 34°41' E 135°17'0 0.0
2017-Nov-09 06:30N 34°41' E 135°17'2 3.7
2017-Nov-09 06:00N 34°40' E 135°19'1 1.7
2017-Nov-09 05:29N 34°39' E 135°19'0 0.0
2017-Nov-09 04:59N 34°39' E 135°19'0 0.0
2017-Nov-09 04:28N 34°39' E 135°19'0 0.0
2017-Nov-09 03:58N 34°39' E 135°19'0 0.0
2017-Nov-09 03:28N 34°39' E 135°19'0 0.0
2017-Nov-09 02:58N 34°39' E 135°19'0 0.0
2017-Nov-09 02:22N 34°39' E 135°19'0 0.1
2017-Nov-09 01:58N 34°39' E 135°19'3 6.8
2017-Nov-09 01:30N 34°39' E 135°15'0 0.7
2017-Nov-09 01:00N 34°39' E 135°15'0 0.0
2017-Nov-09 00:30N 34°39' E 135°15'1 1.1
2017-Nov-09 00:00N 34°40' E 135°15'2 3.2
2017-Nov-08 23:26N 34°41' E 135°17'0 0.0
2017-Nov-08 22:56N 34°41' E 135°17'0 0.0
2017-Nov-08 22:20N 34°41' E 135°17'0 0.0
2017-Nov-08 21:50N 34°41' E 135°17'0 0.0
2017-Nov-08 21:26N 34°41' E 135°17'0 0.0
2017-Nov-08 20:56N 34°41' E 135°17'0 0.0
2017-Nov-08 20:26N 34°41' E 135°17'0 0.0
2017-Nov-08 19:56N 34°41' E 135°17'0 0.0
2017-Nov-08 19:20N 34°41' E 135°17'0 0.0
2017-Nov-08 18:56N 34°41' E 135°17'0 0.0
2017-Nov-08 18:26N 34°41' E 135°17'0 0.0
2017-Nov-08 17:56N 34°41' E 135°17'0 0.0
2017-Nov-08 17:26N 34°41' E 135°17'0 0.0
2017-Nov-08 16:56N 34°41' E 135°17'0 0.0
2017-Nov-08 16:26N 34°41' E 135°17'0 0.0
2017-Nov-08 15:56N 34°41' E 135°17'0 0.0
2017-Nov-08 15:26N 34°41' E 135°17'0 0.0
2017-Nov-08 14:56N 34°41' E 135°17'0 0.0
2017-Nov-08 14:26N 34°41' E 135°17'0 0.0
2017-Nov-08 13:56N 34°41' E 135°17'0 0.0
2017-Nov-08 13:26N 34°41' E 135°17'0 0.0
2017-Nov-08 12:56N 34°41' E 135°17'0 0.0
2017-Nov-08 12:26N 34°41' E 135°17'0 0.0
2017-Nov-08 11:56N 34°41' E 135°17'0 0.0
2017-Nov-08 11:20N 34°41' E 135°17'0 0.0
2017-Nov-08 10:50N 34°41' E 135°17'0 0.0
2017-Nov-08 10:26N 34°41' E 135°17'0 0.0
2017-Nov-08 09:56N 34°41' E 135°17'0 0.0
2017-Nov-08 09:26N 34°41' E 135°17'0 0.0
2017-Nov-08 08:56N 34°41' E 135°17'0 0.0
2017-Nov-08 08:20N 34°41' E 135°17'0 0.0
2017-Nov-08 07:56N 34°41' E 135°17'0 0.0
2017-Nov-08 07:26N 34°41' E 135°17'0 0.0
2017-Nov-08 06:56N 34°41' E 135°17'0 0.0
2017-Nov-08 06:26N 34°41' E 135°17'0 0.0
2017-Nov-08 05:56N 34°41' E 135°17'0 0.0
2017-Nov-08 05:27N 34°41' E 135°17'0 0.4
2017-Nov-08 05:01N 34°41' E 135°17'2 4.6
2017-Nov-08 04:30N 34°39' E 135°19'0 0.3
2017-Nov-08 03:58N 34°39' E 135°19'0 0.1
2017-Nov-08 03:22N 34°39' E 135°19'2 6.8
2017-Nov-08 03:00N 34°39' E 135°16'1 2.7
2017-Nov-08 02:28N 34°40' E 135°14'0 0.0
2017-Nov-08 01:52N 34°40' E 135°14'0 0.0
2017-Nov-08 01:30N 34°40' E 135°14'0 0.9
2017-Nov-08 01:00N 34°39' E 135°15'3 5.9
2017-Nov-08 00:30N 34°37' E 135°17'0 0.0
2017-Nov-07 23:47N 34°37' E 135°17'0 0.0
2017-Nov-07 23:29N 34°37' E 135°17'0 0.1
2017-Nov-07 22:59N 34°37' E 135°17'0 0.0
2017-Nov-07 22:29N 34°37' E 135°17'0 0.0
2017-Nov-07 21:53N 34°37' E 135°17'0 0.1
2017-Nov-07 21:29N 34°37' E 135°17'0 0.1
2017-Nov-07 20:59N 34°37' E 135°17'0 0.1
2017-Nov-07 20:17N 34°37' E 135°17'0 0.0
2017-Nov-07 19:41N 34°37' E 135°17'0 0.0
2017-Nov-07 19:11N 34°37' E 135°17'0 0.0
2017-Nov-07 18:59N 34°37' E 135°17'0 0.0
2017-Nov-07 18:23N 34°37' E 135°17'1 1.4
2017-Nov-07 18:00N 34°36' E 135°16'612.6
2017-Nov-07 17:30N 34°35' E 135°09'714.3
2017-Nov-07 17:00N 34°37' E 135°01'714.1
2017-Nov-07 16:30N 34°34' E 134°53'  
Track history (hours):
 
Tides and Currents Weather Stations Pressure Air Temp Water Temp Dewpoint Dewpoint Depression Visibility Wind Speed Wind Dir Waves Ship Positions

Daikoku

Last reported at 2017-Nov-17 06:02 UTC. Time now 2017-Nov-22 15:05 UTC.
Position N 34°37' E 135°01'.

Length 95 m; draft 3 m.

Type: Cargo ship. MMSI: 431003009.

Date/timePositionNaut miles runAvg speedWind from/ knotsBaromVisibWave heightAir tempDewpointWater temp
2017-Nov-17 06:02N 34°37' E 135°01'010.8
2017-Nov-17 06:00N 34°37' E 135°02'510.6
2017-Nov-17 05:30N 34°36' E 135°08'612.5
2017-Nov-17 05:01N 34°37' E 135°15'4 8.4
2017-Nov-17 04:30N 34°41' E 135°17'0 0.8
2017-Nov-17 04:00N 34°41' E 135°17'3 6.9
2017-Nov-17 03:31N 34°41' E 135°12'0 0.0
2017-Nov-17 03:00N 34°41' E 135°12'0 0.0
2017-Nov-17 02:31N 34°41' E 135°12'0 0.0
2017-Nov-17 02:00N 34°41' E 135°12'0 0.0
2017-Nov-17 01:24N 34°41' E 135°12'0 0.0
2017-Nov-17 00:48N 34°41' E 135°12'0 0.0
2017-Nov-17 00:30N 34°41' E 135°12'0 0.0
2017-Nov-16 23:54N 34°41' E 135°12'0 0.0
2017-Nov-16 23:24N 34°41' E 135°12'0 0.0
2017-Nov-16 22:54N 34°41' E 135°12'0 0.0
2017-Nov-16 21:54N 34°41' E 135°12'0 0.0
2017-Nov-16 21:30N 34°41' E 135°12'0 0.0
2017-Nov-16 20:54N 34°41' E 135°12'0 0.0
2017-Nov-16 20:30N 34°41' E 135°12'0 0.0
2017-Nov-16 19:55N 34°41' E 135°12'0 0.0
2017-Nov-16 19:30N 34°41' E 135°12'0 0.0
2017-Nov-16 19:00N 34°41' E 135°12'0 0.0
2017-Nov-16 18:24N 34°41' E 135°12'0 0.0
2017-Nov-16 18:00N 34°41' E 135°12'0 0.0
2017-Nov-16 17:30N 34°41' E 135°12'0 0.0
2017-Nov-16 17:00N 34°41' E 135°12'0 0.0
2017-Nov-16 16:30N 34°41' E 135°12'0 0.0
2017-Nov-16 15:54N 34°41' E 135°12'0 0.0
2017-Nov-16 15:31N 34°41' E 135°12'0 0.0
2017-Nov-16 15:00N 34°41' E 135°12'0 0.0
2017-Nov-16 14:30N 34°41' E 135°12'0 0.0
2017-Nov-16 14:00N 34°41' E 135°12'0 0.0
2017-Nov-16 13:30N 34°41' E 135°12'0 0.0
2017-Nov-16 12:54N 34°41' E 135°12'0 0.0
2017-Nov-16 12:30N 34°41' E 135°12'0 0.0
2017-Nov-16 11:42N 34°41' E 135°12'0 0.0
2017-Nov-16 11:30N 34°41' E 135°12'0 0.0
2017-Nov-16 11:00N 34°41' E 135°12'0 0.0
2017-Nov-16 10:30N 34°41' E 135°12'0 0.0
2017-Nov-16 09:54N 34°41' E 135°12'0 0.0
2017-Nov-16 09:30N 34°41' E 135°12'0 0.0
2017-Nov-16 09:00N 34°41' E 135°12'0 0.0
2017-Nov-16 08:24N 34°41' E 135°12'0 0.0
2017-Nov-16 08:00N 34°41' E 135°12'3 5.5
2017-Nov-16 07:31N 34°40' E 135°15'5 9.8
2017-Nov-16 07:00N 34°35' E 135°13'713.5
2017-Nov-16 06:30N 34°35' E 135°05'612.8
2017-Nov-16 06:00N 34°36' E 134°57'2 0.1
2017-Nov-15 09:05N 34°37' E 134°59'215.3
2017-Nov-15 08:59N 34°37' E 135°01'613.3
2017-Nov-15 08:30N 34°37' E 135°09'612.5
2017-Nov-15 08:00N 34°38' E 135°16'2 2.6
2017-Nov-15 07:19N 34°40' E 135°14'0 0.0
2017-Nov-15 06:49N 34°40' E 135°14'0 0.0
2017-Nov-15 06:25N 34°40' E 135°14'0 0.0
2017-Nov-15 05:55N 34°40' E 135°14'0 0.0
2017-Nov-15 05:25N 34°40' E 135°14'0 0.0
2017-Nov-15 04:55N 34°40' E 135°14'1 1.5
2017-Nov-15 04:30N 34°39' E 135°15'4 7.5
2017-Nov-15 04:00N 34°38' E 135°19'0 0.1
2017-Nov-15 02:57N 34°38' E 135°19'0 0.0
2017-Nov-15 02:27N 34°38' E 135°19'0 0.0
2017-Nov-15 01:57N 34°38' E 135°19'0 0.0
2017-Nov-15 01:27N 34°38' E 135°19'1 2.8
2017-Nov-15 00:58N 34°37' E 135°18'3 7.2
2017-Nov-15 00:30N 34°41' E 135°18'1 2.0
2017-Nov-15 00:00N 34°41' E 135°17'3 6.0
2017-Nov-14 23:30N 34°39' E 135°19'0 0.1
2017-Nov-14 22:57N 34°39' E 135°19'0 0.0
2017-Nov-14 22:27N 34°39' E 135°19'0 0.0
2017-Nov-14 21:57N 34°39' E 135°19'0 0.0
2017-Nov-14 20:57N 34°39' E 135°19'0 0.0
2017-Nov-14 20:27N 34°39' E 135°19'0 0.0
2017-Nov-14 19:57N 34°39' E 135°19'0 0.1
2017-Nov-14 19:21N 34°39' E 135°19'0 0.1
2017-Nov-14 18:57N 34°39' E 135°19'0 0.1
2017-Nov-14 18:27N 34°39' E 135°19'0 0.0
2017-Nov-14 17:39N 34°39' E 135°19'0 0.0
2017-Nov-14 17:21N 34°39' E 135°19'0 0.0
2017-Nov-14 16:57N 34°39' E 135°19'0 0.0
2017-Nov-14 16:27N 34°39' E 135°19'0 0.0
2017-Nov-14 15:57N 34°39' E 135°19'0 0.0
2017-Nov-14 15:27N 34°39' E 135°19'0 0.0
2017-Nov-14 14:57N 34°39' E 135°19'0 0.0
2017-Nov-14 14:27N 34°39' E 135°19'4 8.9
2017-Nov-14 14:00N 34°36' E 135°16'713.4
2017-Nov-14 13:30N 34°35' E 135°08'714.2
2017-Nov-14 12:59N 34°37' E 134°59'17 0.5
2017-Nov-13 01:51N 34°38' E 135°19'0 0.0
2017-Nov-13 01:27N 34°38' E 135°19'0 0.0
2017-Nov-13 00:57N 34°38' E 135°19'0 0.0
2017-Nov-13 00:15N 34°38' E 135°19'0 0.0
2017-Nov-12 23:51N 34°38' E 135°19'0 0.0
2017-Nov-12 22:39N 34°38' E 135°19'0 0.2
2017-Nov-12 22:27N 34°38' E 135°19'0 0.0
2017-Nov-12 21:51N 34°38' E 135°19'0 0.0
2017-Nov-12 21:27N 34°38' E 135°19'0 0.0
2017-Nov-12 20:45N 34°38' E 135°19'0 0.0
2017-Nov-12 20:27N 34°38' E 135°19'0 0.0
2017-Nov-12 19:57N 34°38' E 135°19'0 0.0
2017-Nov-12 18:33N 34°38' E 135°19'0 0.1
2017-Nov-12 18:27N 34°38' E 135°19'0 0.1
2017-Nov-12 17:57N 34°38' E 135°19'0 0.0
2017-Nov-12 17:27N 34°38' E 135°19'0 0.1
2017-Nov-12 16:57N 34°38' E 135°19'0 0.1
2017-Nov-12 16:27N 34°38' E 135°19'0 0.1
2017-Nov-12 15:45N 34°38' E 135°19'0 0.0
2017-Nov-12 15:27N 34°38' E 135°19'0 0.1
2017-Nov-12 14:51N 34°38' E 135°19'0 0.1
2017-Nov-12 14:21N 34°38' E 135°19'0 0.0
2017-Nov-12 13:45N 34°38' E 135°19'0 0.0
2017-Nov-12 13:15N 34°38' E 135°19'0 0.0
2017-Nov-12 12:51N 34°38' E 135°19'0 0.0
2017-Nov-12 12:27N 34°38' E 135°19'0 0.0
2017-Nov-12 11:57N 34°38' E 135°19'0 0.0
2017-Nov-12 11:15N 34°38' E 135°19'2 8.0
2017-Nov-12 11:00N 34°37' E 135°17'611.8
2017-Nov-12 10:30N 34°35' E 135°11'612.8
2017-Nov-12 10:00N 34°36' E 135°03'  
2017-Nov-09 08:49N 34°37' E 135°01'3 9.8
2017-Nov-09 08:30N 34°36' E 135°05'612.3
2017-Nov-09 08:00N 34°36' E 135°12'611.8
2017-Nov-09 07:30N 34°39' E 135°18'2 4.0
2017-Nov-09 07:00N 34°41' E 135°17'0 0.0
2017-Nov-09 06:30N 34°41' E 135°17'2 3.7
2017-Nov-09 06:00N 34°40' E 135°19'1 1.7
2017-Nov-09 05:29N 34°39' E 135°19'0 0.0
2017-Nov-09 04:59N 34°39' E 135°19'0 0.0
2017-Nov-09 04:28N 34°39' E 135°19'0 0.0
2017-Nov-09 03:58N 34°39' E 135°19'0 0.0
2017-Nov-09 03:28N 34°39' E 135°19'0 0.0
2017-Nov-09 02:58N 34°39' E 135°19'0 0.0
2017-Nov-09 02:22N 34°39' E 135°19'0 0.1
2017-Nov-09 01:58N 34°39' E 135°19'3 6.8
2017-Nov-09 01:30N 34°39' E 135°15'0 0.7
2017-Nov-09 01:00N 34°39' E 135°15'0 0.0
2017-Nov-09 00:30N 34°39' E 135°15'1 1.1
2017-Nov-09 00:00N 34°40' E 135°15'2 3.2
2017-Nov-08 23:26N 34°41' E 135°17'0 0.0
2017-Nov-08 22:56N 34°41' E 135°17'0 0.0
2017-Nov-08 22:20N 34°41' E 135°17'0 0.0
2017-Nov-08 21:50N 34°41' E 135°17'0 0.0
2017-Nov-08 21:26N 34°41' E 135°17'0 0.0
2017-Nov-08 20:56N 34°41' E 135°17'0 0.0
2017-Nov-08 20:26N 34°41' E 135°17'0 0.0
2017-Nov-08 19:56N 34°41' E 135°17'0 0.0
2017-Nov-08 19:20N 34°41' E 135°17'0 0.0
2017-Nov-08 18:56N 34°41' E 135°17'0 0.0
2017-Nov-08 18:26N 34°41' E 135°17'0 0.0
2017-Nov-08 17:56N 34°41' E 135°17'0 0.0
2017-Nov-08 17:26N 34°41' E 135°17'0 0.0
2017-Nov-08 16:56N 34°41' E 135°17'0 0.0
2017-Nov-08 16:26N 34°41' E 135°17'0 0.0
2017-Nov-08 15:56N 34°41' E 135°17'0 0.0
2017-Nov-08 15:26N 34°41' E 135°17'0 0.0
2017-Nov-08 14:56N 34°41' E 135°17'0 0.0
2017-Nov-08 14:26N 34°41' E 135°17'0 0.0
2017-Nov-08 13:56N 34°41' E 135°17'0 0.0
2017-Nov-08 13:26N 34°41' E 135°17'0 0.0
2017-Nov-08 12:56N 34°41' E 135°17'0 0.0
2017-Nov-08 12:26N 34°41' E 135°17'0 0.0
2017-Nov-08 11:56N 34°41' E 135°17'0 0.0
2017-Nov-08 11:20N 34°41' E 135°17'0 0.0
2017-Nov-08 10:50N 34°41' E 135°17'0 0.0
2017-Nov-08 10:26N 34°41' E 135°17'0 0.0
2017-Nov-08 09:56N 34°41' E 135°17'0 0.0
2017-Nov-08 09:26N 34°41' E 135°17'0 0.0
2017-Nov-08 08:56N 34°41' E 135°17'0 0.0
2017-Nov-08 08:20N 34°41' E 135°17'0 0.0
2017-Nov-08 07:56N 34°41' E 135°17'0 0.0
2017-Nov-08 07:26N 34°41' E 135°17'0 0.0
2017-Nov-08 06:56N 34°41' E 135°17'0 0.0
2017-Nov-08 06:26N 34°41' E 135°17'0 0.0
2017-Nov-08 05:56N 34°41' E 135°17'0 0.0
2017-Nov-08 05:27N 34°41' E 135°17'0 0.4
2017-Nov-08 05:01N 34°41' E 135°17'2 4.6
2017-Nov-08 04:30N 34°39' E 135°19'0 0.3
2017-Nov-08 03:58N 34°39' E 135°19'0 0.1
2017-Nov-08 03:22N 34°39' E 135°19'2 6.8
2017-Nov-08 03:00N 34°39' E 135°16'1 2.7
2017-Nov-08 02:28N 34°40' E 135°14'0 0.0
2017-Nov-08 01:52N 34°40' E 135°14'0 0.0
2017-Nov-08 01:30N 34°40' E 135°14'0 0.9
2017-Nov-08 01:00N 34°39' E 135°15'3 5.9
2017-Nov-08 00:30N 34°37' E 135°17'0 0.0
2017-Nov-07 23:47N 34°37' E 135°17'0 0.0
2017-Nov-07 23:29N 34°37' E 135°17'0 0.1
2017-Nov-07 22:59N 34°37' E 135°17'0 0.0
2017-Nov-07 22:29N 34°37' E 135°17'0 0.0
2017-Nov-07 21:53N 34°37' E 135°17'0 0.1
2017-Nov-07 21:29N 34°37' E 135°17'0 0.1
2017-Nov-07 20:59N 34°37' E 135°17'0 0.1
2017-Nov-07 20:17N 34°37' E 135°17'0 0.0
2017-Nov-07 19:41N 34°37' E 135°17'0 0.0
2017-Nov-07 19:11N 34°37' E 135°17'0 0.0
2017-Nov-07 18:59N 34°37' E 135°17'0 0.0
2017-Nov-07 18:23N 34°37' E 135°17'1 1.4
2017-Nov-07 18:00N 34°36' E 135°16'612.6
2017-Nov-07 17:30N 34°35' E 135°09'714.3
2017-Nov-07 17:00N 34°37' E 135°01'714.1
2017-Nov-07 16:30N 34°34' E 134°53'  

Dump ship's entire track history